Time,TemperatureF,DewpointF,PressureIn,WindDirection,WindDirectionDegrees,WindSpeedMPH,WindSpeedGustMPH,Humidity,HourlyPrecipIn,Conditions,Clouds,dailyrainin,SoftwareType,DateUTC
2013-07-05 00:08:00,73.3,69.0,29.95,SSE,168,1.0,4.0,86,0.00,,,0.00,weatherlink.com 1.10,2013-07-05 05:08:00,
2013-07-05 00:23:00,73.0,69.0,29.95,ESE,104,0.0,4.0,86,0.00,,,0.00,weatherlink.com 1.10,2013-07-05 05:23:00,
2013-07-05 00:38:00,72.8,68.0,29.95,South,183,0.0,4.0,86,0.00,,,0.00,weatherlink.com 1.10,2013-07-05 05:38:00,
2013-07-05 00:53:00,72.6,69.0,29.95,East,89,2.0,4.0,87,0.00,,,0.00,weatherlink.com 1.10,2013-07-05 05:53:00,
2013-07-05 01:08:00,72.4,68.0,29.96,SSE,147,1.0,3.0,87,0.00,,,0.00,weatherlink.com 1.10,2013-07-05 06:08:00,
2013-07-05 01:23:00,72.2,68.0,29.96,SE,137,1.0,4.0,87,0.00,,,0.00,weatherlink.com 1.10,2013-07-05 06:23:00,
2013-07-05 01:38:00,71.9,68.0,29.96,SSE,152,0.0,2.0,87,0.00,,,0.00,weatherlink.com 1.10,2013-07-05 06:38:00,
2013-07-05 01:53:00,71.4,68.0,29.96,NE,52,0.0,2.0,88,0.00,,,0.00,weatherlink.com 1.10,2013-07-05 06:53:00,
2013-07-05 02:08:00,71.1,68.0,29.95,ENE,77,0.0,2.0,89,0.00,,,0.00,weatherlink.com 1.10,2013-07-05 07:08:00,
2013-07-05 02:23:00,70.6,68.0,29.95,ENE,77,0.0,0.0,90,0.00,,,0.00,weatherlink.com 1.10,2013-07-05 07:23:00,
2013-07-05 02:38:00,70.1,67.0,29.95,ENE,76,1.0,3.0,91,0.00,,,0.00,weatherlink.com 1.10,2013-07-05 07:38:00,
2013-07-05 02:53:00,69.7,67.0,29.95,ENE,76,0.0,2.0,92,0.00,,,0.00,weatherlink.com 1.10,2013-07-05 07:53:00,
2013-07-05 03:08:00,69.5,68.0,29.95,ESE,122,0.0,2.0,93,0.00,,,0.00,weatherlink.com 1.10,2013-07-05 08:08:00,
2013-07-05 03:23:00,69.4,67.0,29.95,ESE,122,1.0,2.0,93,0.00,,,0.00,weatherlink.com 1.10,2013-07-05 08:23:00,
2013-07-05 03:38:00,69.4,67.0,29.95,East,93,0.0,3.0,93,0.00,,,0.00,weatherlink.com 1.10,2013-07-05 08:38:00,
2013-07-05 03:53:00,69.5,68.0,29.95,ESE,108,0.0,2.0,93,0.00,,,0.00,weatherlink.com 1.10,2013-07-05 08:53:00,
2013-07-05 04:08:00,69.4,67.0,29.96,ESE,108,1.0,1.0,93,0.00,,,0.00,weatherlink.com 1.10,2013-07-05 09:08:00,
2013-07-05 04:23:00,69.3,68.0,29.96,ESE,108,0.0,0.0,94,0.00,,,0.00,weatherlink.com 1.10,2013-07-05 09:23:00,
2013-07-05 04:38:00,69.2,67.0,29.96,ESE,108,0.0,2.0,93,0.00,,,0.00,weatherlink.com 1.10,2013-07-05 09:38:00,
2013-07-05 04:54:00,68.9,67.0,29.97,ESE,108,0.0,1.0,94,0.00,,,0.00,weatherlink.com 1.10,2013-07-05 09:54:00,
2013-07-05 05:09:00,68.8,67.0,29.97,ESE,108,0.0,1.0,94,0.00,,,0.00,weatherlink.com 1.10,2013-07-05 10:09:00,
2013-07-05 05:24:00,68.8,67.0,29.98,ESE,108,0.0,2.0,94,0.00,,,0.00,weatherlink.com 1.10,2013-07-05 10:24:00,
2013-07-05 05:39:00,68.8,67.0,29.98,ESE,104,0.0,2.0,95,0.00,,,0.00,weatherlink.com 1.10,2013-07-05 10:39:00,
2013-07-05 06:39:00,69.3,68.0,29.99,East,98,0.0,2.0,95,0.00,,,0.00,weatherlink.com 1.10,2013-07-05 11:39:00,
2013-07-05 06:54:00,69.4,68.0,29.99,East,97,0.0,2.0,95,0.00,,,0.00,weatherlink.com 1.10,2013-07-05 11:54:00,
2013-07-05 07:09:00,69.9,68.0,29.99,East,81,0.0,2.0,94,0.00,,,0.00,weatherlink.com 1.10,2013-07-05 12:09:00,
2013-07-05 07:24:00,69.8,68.0,29.99,ENE,66,0.0,3.0,94,0.00,,,0.00,weatherlink.com 1.10,2013-07-05 12:24:00,
2013-07-05 08:09:00,70.2,68.0,30.00,SE,139,1.0,4.0,93,0.00,,,0.00,weatherlink.com 1.10,2013-07-05 13:09:00,
2013-07-05 08:24:00,70.7,68.0,30.01,SE,137,0.0,4.0,92,0.00,,,0.00,weatherlink.com 1.10,2013-07-05 13:24:00,
2013-07-05 08:54:00,71.6,69.0,30.02,SE,142,1.0,5.0,90,0.00,,,0.00,weatherlink.com 1.10,2013-07-05 13:54:00,
2013-07-05 09:09:00,73.1,69.0,30.02,NE,56,4.0,6.0,87,0.00,,,0.00,weatherlink.com 1.10,2013-07-05 14:09:00,
2013-07-05 09:24:00,73.8,69.0,30.02,SSW,201,1.0,5.0,85,0.00,,,0.00,weatherlink.com 1.10,2013-07-05 14:24:00,
2013-07-05 09:54:00,75.2,69.0,30.02,SSE,162,1.0,4.0,82,0.00,,,0.00,weatherlink.com 1.10,2013-07-05 14:54:00,
2013-07-05 10:09:00,76.3,70.0,30.02,ENE,68,3.0,4.0,81,0.00,,,0.00,weatherlink.com 1.10,2013-07-05 15:09:00,
2013-07-05 10:24:00,77.2,70.0,30.02,NNW,337,2.0,6.0,79,0.00,,,0.00,weatherlink.com 1.10,2013-07-05 15:24:00,
2013-07-05 10:39:00,78.8,71.0,30.02,NNW,342,2.0,7.0,76,0.00,,,0.00,weatherlink.com 1.10,2013-07-05 15:39:00,
2013-07-05 10:54:00,79.3,71.0,30.02,East,86,3.0,8.0,75,0.00,,,0.00,weatherlink.com 1.10,2013-07-05 15:54:00,
2013-07-05 11:09:00,78.4,71.0,30.02,North,359,2.0,8.0,77,0.00,,,0.00,weatherlink.com 1.10,2013-07-05 16:09:00,
2013-07-05 11:24:00,79.2,71.0,30.02,NE,49,2.0,7.0,76,0.00,,,0.00,weatherlink.com 1.10,2013-07-05 16:24:00,
2013-07-05 11:39:00,79.8,70.0,30.02,WNW,296,2.0,7.0,73,0.00,,,0.00,weatherlink.com 1.10,2013-07-05 16:39:00,
2013-07-05 11:54:00,80.2,70.0,30.02,ESE,102,4.0,7.0,72,0.00,,,0.00,weatherlink.com 1.10,2013-07-05 16:54:00,
2013-07-05 12:09:00,81.6,71.0,30.02,SE,126,5.0,9.0,70,0.00,,,0.00,weatherlink.com 1.10,2013-07-05 17:09:00,
2013-07-05 12:24:00,81.5,71.0,30.01,NW,312,4.0,5.0,70,0.00,,,0.00,weatherlink.com 1.10,2013-07-05 17:24:00,
2013-07-05 12:39:00,82.5,71.0,30.01,NE,48,0.0,5.0,68,0.00,,,0.00,weatherlink.com 1.10,2013-07-05 17:39:00,
2013-07-05 12:54:00,83.1,71.0,30.00,South,191,2.0,7.0,67,0.00,,,0.00,weatherlink.com 1.10,2013-07-05 17:54:00,
2013-07-05 13:10:00,84.3,71.0,30.00,ENE,77,0.0,5.0,64,0.00,,,0.00,weatherlink.com 1.10,2013-07-05 18:10:00,
2013-07-05 13:25:00,84.1,71.0,30.00,SE,139,3.0,9.0,64,0.00,,,0.00,weatherlink.com 1.10,2013-07-05 18:25:00,
2013-07-05 13:40:00,83.9,69.0,29.99,South,183,1.0,13.0,61,0.00,,,0.00,weatherlink.com 1.10,2013-07-05 18:40:00,
2013-07-05 13:55:00,85.3,70.0,29.99,West,276,1.0,8.0,60,0.00,,,0.00,weatherlink.com 1.10,2013-07-05 18:55:00,
2013-07-05 14:10:00,86.2,69.0,29.98,SE,131,2.0,6.0,57,0.00,,,0.00,weatherlink.com 1.10,2013-07-05 19:10:00,
2013-07-05 14:25:00,86.4,70.0,29.97,East,79,1.0,7.0,58,0.00,,,0.00,weatherlink.com 1.10,2013-07-05 19:25:00,
2013-07-05 14:40:00,87.1,70.0,29.97,South,177,3.0,7.0,58,0.00,,,0.00,weatherlink.com 1.10,2013-07-05 19:40:00,
2013-07-05 14:55:00,87.8,70.0,29.97,NNE,12,1.0,8.0,56,0.00,,,0.00,weatherlink.com 1.10,2013-07-05 19:55:00,
2013-07-05 15:10:00,88.4,69.0,29.97,SE,135,1.0,8.0,53,0.00,,,0.00,weatherlink.com 1.10,2013-07-05 20:10:00,
2013-07-05 15:25:00,86.6,70.0,29.96,NNE,24,3.0,8.0,58,0.00,,,0.00,weatherlink.com 1.10,2013-07-05 20:25:00,
2013-07-05 15:40:00,86.6,70.0,29.96,SE,132,2.0,6.0,58,0.00,,,0.00,weatherlink.com 1.10,2013-07-05 20:40:00,
2013-07-05 15:55:00,86.5,70.0,29.96,NE,52,4.0,6.0,58,0.00,,,0.00,weatherlink.com 1.10,2013-07-05 20:55:00,
2013-07-05 16:10:00,87.0,70.0,29.95,NNE,27,2.0,7.0,58,0.00,,,0.00,weatherlink.com 1.10,2013-07-05 21:10:00,
2013-07-05 16:25:00,87.1,70.0,29.95,East,89,5.0,8.0,58,0.00,,,0.00,weatherlink.com 1.10,2013-07-05 21:25:00,
2013-07-05 16:40:00,85.6,71.0,29.94,NE,56,1.0,6.0,61,0.00,,,0.00,weatherlink.com 1.10,2013-07-05 21:40:00,
2013-07-05 16:55:00,85.8,70.0,29.93,SSW,202,1.0,5.0,60,0.00,,,0.00,weatherlink.com 1.10,2013-07-05 21:55:00,
2013-07-05 17:10:00,84.9,70.0,29.93,North,350,2.0,4.0,62,0.00,,,0.00,weatherlink.com 1.10,2013-07-05 22:10:00,
2013-07-05 17:25:00,84.0,71.0,29.93,North,4,2.0,4.0,64,0.00,,,0.00,weatherlink.com 1.10,2013-07-05 22:25:00,
2013-07-05 17:40:00,83.4,70.0,29.93,ENE,67,1.0,4.0,64,0.00,,,0.00,weatherlink.com 1.10,2013-07-05 22:40:00,
2013-07-05 17:55:00,83.4,70.0,29.94,North,359,2.0,3.0,64,0.00,,,0.00,weatherlink.com 1.10,2013-07-05 22:55:00,
2013-07-05 18:10:00,83.5,71.0,29.95,ENE,77,7.0,8.0,65,0.00,,,0.00,weatherlink.com 1.10,2013-07-05 23:10:00,
2013-07-05 18:25:00,80.3,67.0,29.95,NNE,14,2.0,6.0,63,0.00,,,0.00,weatherlink.com 1.10,2013-07-05 23:25:00,
2013-07-05 18:40:00,68.6,64.0,29.96,NNE,23,1.0,12.0,84,0.40,,,0.40,weatherlink.com 1.10,2013-07-05 23:40:00,
2013-07-05 18:55:00,68.6,66.0,29.96,SSW,201,2.0,12.0,92,0.41,,,0.41,weatherlink.com 1.10,2013-07-05 23:55:00,
2013-07-05 19:10:00,69.2,66.0,29.94,South,183,2.0,13.0,88,0.41,,,0.41,weatherlink.com 1.10,2013-07-06 00:10:00,
2013-07-05 19:25:00,68.1,65.0,29.95,SSW,201,0.0,9.0,90,0.44,,,0.44,weatherlink.com 1.10,2013-07-06 00:25:00,
2013-07-05 19:40:00,68.5,66.0,29.96,South,191,2.0,7.0,90,0.04,,,0.44,weatherlink.com 1.10,2013-07-06 00:40:00,
2013-07-05 19:55:00,68.8,65.0,29.95,South,177,1.0,10.0,88,0.03,,,0.44,weatherlink.com 1.10,2013-07-06 00:55:00,
2013-07-05 20:10:00,68.3,65.0,29.95,SSE,155,5.0,7.0,90,0.02,,,0.44,weatherlink.com 1.10,2013-07-06 01:10:00,
2013-07-05 20:25:00,68.1,65.0,29.96,East,83,5.0,5.0,91,0.00,,,0.44,weatherlink.com 1.10,2013-07-06 01:25:00,
2013-07-05 20:40:00,67.8,66.0,29.97,SE,130,4.0,6.0,92,0.00,,,0.44,weatherlink.com 1.10,2013-07-06 01:40:00,
2013-07-05 20:55:00,68.1,66.0,29.97,ESE,104,1.0,6.0,92,0.00,,,0.44,weatherlink.com 1.10,2013-07-06 01:55:00,
2013-07-05 21:10:00,68.4,66.0,29.98,SSE,153,1.0,3.0,91,0.00,,,0.44,weatherlink.com 1.10,2013-07-06 02:10:00,
2013-07-05 21:25:00,68.4,65.0,29.99,SSE,168,0.0,4.0,90,0.00,,,0.44,weatherlink.com 1.10,2013-07-06 02:25:00,
2013-07-05 21:40:00,68.6,65.0,29.98,SSE,166,0.0,3.0,89,0.00,,,0.44,weatherlink.com 1.10,2013-07-06 02:40:00,
2013-07-05 21:55:00,68.7,65.0,29.99,South,171,1.0,4.0,89,0.00,,,0.44,weatherlink.com 1.10,2013-07-06 02:55:00,
2013-07-05 22:10:00,68.3,65.0,29.99,South,177,1.0,6.0,89,0.00,,,0.44,weatherlink.com 1.10,2013-07-06 03:10:00,
2013-07-05 22:25:00,67.7,64.0,29.98,ESE,119,4.0,7.0,88,0.00,,,0.44,weatherlink.com 1.10,2013-07-06 03:25:00,
2013-07-05 22:40:00,67.3,64.0,29.97,SSE,147,2.0,6.0,89,0.00,,,0.44,weatherlink.com 1.10,2013-07-06 03:40:00,
2013-07-05 22:55:00,66.8,64.0,29.97,SSE,154,4.0,5.0,89,0.00,,,0.44,weatherlink.com 1.10,2013-07-06 03:55:00,
2013-07-05 23:10:00,67.0,63.0,29.98,South,183,1.0,4.0,88,0.00,,,0.44,weatherlink.com 1.10,2013-07-06 04:10:00,
2013-07-05 23:25:00,67.2,63.0,29.98,South,181,1.0,2.0,87,0.00,,,0.44,weatherlink.com 1.10,2013-07-06 04:25:00,
2013-07-05 23:40:00,67.2,63.0,29.97,South,172,1.0,5.0,86,0.00,,,0.44,weatherlink.com 1.10,2013-07-06 04:40:00,
2013-07-05 23:55:00,67.1,63.0,29.97,South,181,0.0,5.0,86,0.00,,,0.44,weatherlink.com 1.10,2013-07-06 04:55:00,